Time;durP1;ratioP1;P1;durP2;ratioP2;P2;SDS_P1;SDS_P2;PMS_P1;PMS_P2;Temp;Humidity;BMP_temperature;BMP_pressure;BME280_temperature;BME280_humidity;BME280_pressure;Samples;Min_cycle;Max_cycle;Signal;HPM_P1;HPM_P2
2023/01/16 00:00:25;;;;;;;5.07;1.10;;;;;;;;;;5030159;28;20024;-52
2023/01/16 00:02:50;;;;;;;3.72;0.85;;;;;;;;;;5047455;28;20041;-51
2023/01/16 00:05:15;;;;;;;3.92;0.90;;;;;;;;;;5031228;28;20040;-52
2023/01/16 00:07:40;;;;;;;5.77;1.00;;;;;;;;;;5032967;28;20091;-50
2023/01/16 00:10:06;;;;;;;3.08;0.90;;;;;;;;;;5032768;28;20498;-52
2023/01/16 00:12:31;;;;;;;5.20;1.45;;;;;;;;;;5021013;28;20499;-49
2023/01/16 00:14:56;;;;;;;4.18;1.20;;;;;;;;;;5021361;28;20033;-52
2023/01/16 00:17:21;;;;;;;4.65;1.10;;;;;;;;;;5041632;28;20025;-51
2023/01/16 00:19:46;;;;;;;4.87;1.10;;;;;;;;;;5041817;28;20014;-52
2023/01/16 00:22:11;;;;;;;5.65;1.50;;;;;;;;;;5036033;28;20044;-53
2023/01/16 00:24:36;;;;;;;5.03;0.87;;;;;;;;;;5043018;28;20036;-53
2023/01/16 00:27:01;;;;;;;3.20;0.80;;;;;;;;;;5052071;28;20021;-51
2023/01/16 00:29:27;;;;;;;2.78;0.93;;;;;;;;;;5029020;28;20022;-54
2023/01/16 00:31:52;;;;;;;5.17;1.10;;;;;;;;;;5038610;28;20037;-50
2023/01/16 00:34:17;;;;;;;2.78;0.90;;;;;;;;;;5033142;28;20025;-50
2023/01/16 00:36:42;;;;;;;3.90;0.90;;;;;;;;;;5032014;28;20033;-50
2023/01/16 00:39:07;;;;;;;4.78;1.25;;;;;;;;;;5039612;28;20481;-50
2023/01/16 00:41:32;;;;;;;3.53;0.90;;;;;;;;;;5032173;28;20116;-51
2023/01/16 00:43:58;;;;;;;5.07;1.10;;;;;;;;;;5030972;28;20052;-56
2023/01/16 00:46:24;;;;;;;3.92;0.90;;;;;;;;;;5021538;28;20495;-55
2023/01/16 00:48:49;;;;;;;3.30;1.00;;;;;;;;;;5028750;28;20110;-52
2023/01/16 00:51:14;;;;;;;4.20;1.10;;;;;;;;;;5035008;28;20445;-50
2023/01/16 00:53:39;;;;;;;3.53;1.05;;;;;;;;;;5038576;28;20032;-52
2023/01/16 00:56:05;;;;;;;3.40;1.10;;;;;;;;;;5030116;28;20021;-50
2023/01/16 00:58:32;;;;;;;4.68;1.27;;;;;;;;;;5030171;28;20021;-58
2023/01/16 01:00:57;;;;;;;4.93;1.48;;;;;;;;;;5032109;28;20025;-53
2023/01/16 01:03:22;;;;;;;6.22;1.30;;;;;;;;;;5032796;28;20494;-52
2023/01/16 01:05:47;;;;;;;3.53;1.10;;;;;;;;;;5029522;28;20101;-51
2023/01/16 01:08:12;;;;;;;4.55;1.27;;;;;;;;;;5036845;28;20037;-51
2023/01/16 01:10:38;;;;;;;6.63;1.67;;;;;;;;;;5032056;28;20403;-50
2023/01/16 01:13:03;;;;;;;7.03;1.80;;;;;;;;;;5026088;28;20035;-50
2023/01/16 01:15:28;;;;;;;6.17;1.73;;;;;;;;;;5036145;28;20049;-54
2023/01/16 01:17:54;;;;;;;5.57;1.50;;;;;;;;;;5031115;28;20029;-51
2023/01/16 01:20:19;;;;;;;4.20;1.30;;;;;;;;;;5026795;28;20029;-53
2023/01/16 01:22:45;;;;;;;6.63;1.70;;;;;;;;;;5024077;28;20044;-51
2023/01/16 01:25:10;;;;;;;5.72;1.50;;;;;;;;;;5025540;28;20383;-51
2023/01/16 01:27:35;;;;;;;5.53;1.40;;;;;;;;;;5039151;28;20018;-50
2023/01/16 01:30:00;;;;;;;3.60;1.40;;;;;;;;;;5026518;28;20060;-51
2023/01/16 01:32:25;;;;;;;4.45;1.50;;;;;;;;;;5033202;28;20124;-55
2023/01/16 01:34:50;;;;;;;4.28;1.45;;;;;;;;;;5044568;28;20037;-52
2023/01/16 01:37:16;;;;;;;4.22;1.60;;;;;;;;;;5023349;28;20438;-51
2023/01/16 01:39:41;;;;;;;6.10;1.30;;;;;;;;;;5011772;28;20049;-52
2023/01/16 01:44:57;;;;;;;3.72;1.23;;;;;;;;;;5020964;28;20121;-55
2023/01/16 01:47:25;;;;;;;4.53;1.20;;;;;;;;;;5040722;28;20021;-50
2023/01/16 01:49:51;;;;;;;4.90;1.52;;;;;;;;;;5051035;28;20013;-52
2023/01/16 01:52:17;;;;;;;4.18;1.10;;;;;;;;;;5038463;28;20545;-51
2023/01/16 01:54:44;;;;;;;3.85;1.08;;;;;;;;;;5024961;28;20021;-50
2023/01/16 01:57:10;;;;;;;;;;;;;;;;;;5051563;28;20029;-55
2023/01/16 01:59:38;;;;;;;4.47;1.30;;;;;;;;;;5050142;28;19911;-50
2023/01/16 02:02:04;;;;;;;4.75;1.20;;;;;;;;;;5028313;28;20024;-50
2023/01/16 02:04:32;;;;;;;4.05;1.25;;;;;;;;;;5027845;28;20036;-59
2023/01/16 02:07:00;;;;;;;3.80;1.02;;;;;;;;;;5010441;28;20554;-52
2023/01/16 02:09:26;;;;;;;3.83;1.20;;;;;;;;;;5017865;28;20100;-52
2023/01/16 02:11:55;;;;;;;3.97;1.10;;;;;;;;;;5028674;28;22091;-51
2023/01/16 02:14:21;;;;;;;5.25;1.15;;;;;;;;;;5029425;28;20026;-53
2023/01/16 02:19:43;;;;;;;4.80;1.10;;;;;;;;;;5029346;28;20413;-53
2023/01/16 02:22:29;;;;;;;3.70;1.02;;;;;;;;;;5022479;28;20022;-54
2023/01/16 02:25:25;;;;;;;4.13;1.08;;;;;;;;;;5027435;28;20022;-53
2023/01/16 02:28:16;;;;;;;2.75;0.93;;;;;;;;;;5028978;28;20095;-54
2023/01/16 02:30:59;;;;;;;5.80;1.13;;;;;;;;;;5029089;28;20033;-54
2023/01/16 02:33:37;;;;;;;4.78;1.30;;;;;;;;;;5029428;28;20025;-54
2023/01/16 02:36:16;;;;;;;5.85;1.13;;;;;;;;;;5026125;28;20021;-51
2023/01/16 02:38:46;;;;;;;4.32;1.33;;;;;;;;;;5023033;28;20021;-51
2023/01/16 02:41:15;;;;;;;3.80;1.50;;;;;;;;;;5030488;28;20021;-55
2023/01/16 02:43:47;;;;;;;4.95;1.45;;;;;;;;;;5020385;28;20030;-51
2023/01/16 02:46:31;;;;;;;4.97;1.40;;;;;;;;;;5024192;28;20100;-51
2023/01/16 02:49:09;;;;;;;6.00;1.83;;;;;;;;;;5024412;28;20779;-51
2023/01/16 02:51:49;;;;;;;4.55;1.70;;;;;;;;;;5027401;28;20037;-51
2023/01/16 02:54:18;;;;;;;5.60;2.00;;;;;;;;;;5027325;28;20021;-51
2023/01/16 02:56:45;;;;;;;5.00;2.00;;;;;;;;;;5031615;28;20021;-52
2023/01/16 02:59:12;;;;;;;4.82;2.00;;;;;;;;;;5036916;28;20021;-54
2023/01/16 03:01:40;;;;;;;5.03;1.80;;;;;;;;;;5020474;28;20376;-53
2023/01/16 03:04:25;;;;;;;5.10;1.80;;;;;;;;;;5023903;28;20494;-55
2023/01/16 03:06:55;;;;;;;4.22;1.83;;;;;;;;;;5027522;28;20149;-51
2023/01/16 03:09:27;;;;;;;5.38;2.05;;;;;;;;;;5019411;28;20022;-55
2023/01/16 03:12:14;;;;;;;5.65;2.00;;;;;;;;;;5043394;28;20509;-51
2023/01/16 03:14:39;;;;;;;4.43;1.92;;;;;;;;;;5047822;28;20032;-57
2023/01/16 03:17:04;;;;;;;4.93;2.15;;;;;;;;;;5046929;28;20135;-54
2023/01/16 03:19:39;;;;;;;4.65;1.80;;;;;;;;;;5038133;28;20101;-51
2023/01/16 03:22:13;;;;;;;5.15;1.60;;;;;;;;;;5032468;28;20025;-51
2023/01/16 03:24:47;;;;;;;5.25;1.70;;;;;;;;;;5033301;28;20038;-53
2023/01/16 03:27:15;;;;;;;5.13;1.50;;;;;;;;;;5053471;28;20017;-50
2023/01/16 03:29:51;;;;;;;6.53;1.60;;;;;;;;;;5024337;28;20030;-50
2023/01/16 03:32:21;;;;;;;4.25;1.35;;;;;;;;;;5016591;28;20372;-50
2023/01/16 03:34:47;;;;;;;5.25;1.42;;;;;;;;;;5041944;28;20025;-49
2023/01/16 03:37:12;;;;;;;5.72;1.60;;;;;;;;;;5023680;28;20029;-52
2023/01/16 03:39:39;;;;;;;5.20;1.63;;;;;;;;;;5033629;28;20025;-49
2023/01/16 03:42:08;;;;;;;3.80;1.40;;;;;;;;;;5033012;28;20352;-56
2023/01/16 03:44:35;;;;;;;3.28;1.17;;;;;;;;;;5031477;28;20087;-50
2023/01/16 03:47:00;;;;;;;;;;;;;;;;;;5040303;28;20029;-54
2023/01/16 03:49:30;;;;;;;5.72;1.40;;;;;;;;;;5028330;28;20016;-51
2023/01/16 03:51:59;;;;;;;6.40;1.48;;;;;;;;;;5015796;28;20029;-51
2023/01/16 03:54:48;;;;;;;6.40;2.03;;;;;;;;;;5017051;28;20479;-52
2023/01/16 03:57:16;;;;;;;5.15;1.70;;;;;;;;;;5021778;28;20064;-51
2023/01/16 03:59:43;;;;;;;6.45;2.33;;;;;;;;;;5029354;28;20018;-51
2023/01/16 04:02:14;;;;;;;6.10;2.28;;;;;;;;;;5041357;28;20105;-49
2023/01/16 04:04:47;;;;;;;5.32;1.80;;;;;;;;;;5032876;28;20026;-53
2023/01/16 04:07:15;;;;;;;6.20;2.03;;;;;;;;;;5031787;28;20506;-54
2023/01/16 04:09:57;;;;;;;5.38;1.90;;;;;;;;;;5028358;28;20025;-52
2023/01/16 04:12:24;;;;;;;5.43;2.20;;;;;;;;;;5012340;28;20434;-50
2023/01/16 04:14:54;;;;;;;7.85;2.00;;;;;;;;;;5016534;28;20022;-52
2023/01/16 04:17:19;;;;;;;4.80;1.70;;;;;;;;;;5028741;28;20455;-57
2023/01/16 04:19:44;;;;;;;6.00;1.85;;;;;;;;;;5028302;28;20068;-51
2023/01/16 04:22:19;;;;;;;5.20;1.70;;;;;;;;;;5026380;28;20049;-54
2023/01/16 04:24:44;;;;;;;5.32;1.80;;;;;;;;;;5022968;28;20520;-51
2023/01/16 04:27:09;;;;;;;5.35;1.42;;;;;;;;;;5029381;28;20017;-52
2023/01/16 04:29:34;;;;;;;5.15;1.50;;;;;;;;;;5025939;28;20418;-51
2023/01/16 04:31:59;;;;;;;5.75;1.63;;;;;;;;;;5029171;28;20068;-54
2023/01/16 04:34:25;;;;;;;5.18;1.50;;;;;;;;;;5025940;28;20044;-51
2023/01/16 04:36:50;;;;;;;5.83;1.60;;;;;;;;;;5032921;28;20426;-50
2023/01/16 04:39:15;;;;;;;5.10;1.67;;;;;;;;;;5032825;28;20033;-51
2023/01/16 04:41:40;;;;;;;6.37;1.50;;;;;;;;;;5032645;28;20021;-50
2023/01/16 04:44:07;;;;;;;5.05;1.85;;;;;;;;;;5024511;28;20022;-52
2023/01/16 04:46:32;;;;;;;5.10;1.70;;;;;;;;;;5049910;28;20055;-50
2023/01/16 04:48:58;;;;;;;6.00;1.65;;;;;;;;;;5032307;28;20052;-53
2023/01/16 04:51:23;;;;;;;5.60;1.60;;;;;;;;;;5031299;28;20102;-50
2023/01/16 04:53:48;;;;;;;4.72;1.83;;;;;;;;;;5040596;28;20021;-50
2023/01/16 04:56:14;;;;;;;5.43;1.90;;;;;;;;;;5040909;28;20082;-49
2023/01/16 04:58:39;;;;;;;5.03;1.87;;;;;;;;;;5032740;28;20056;-49
2023/01/16 05:01:04;;;;;;;5.67;1.87;;;;;;;;;;5024223;28;20013;-49
2023/01/16 05:03:29;;;;;;;5.43;1.92;;;;;;;;;;5020815;28;20033;-49
2023/01/16 05:05:54;;;;;;;5.67;2.20;;;;;;;;;;5029947;28;20017;-54
2023/01/16 05:08:20;;;;;;;7.07;2.40;;;;;;;;;;5038973;28;20457;-53
2023/01/16 05:10:45;;;;;;;5.70;1.90;;;;;;;;;;5042349;28;20033;-54
2023/01/16 05:13:11;;;;;;;5.53;2.10;;;;;;;;;;5031399;28;20025;-50
2023/01/16 05:15:36;;;;;;;5.05;2.20;;;;;;;;;;5043374;28;20021;-50
2023/01/16 05:18:01;;;;;;;7.60;2.33;;;;;;;;;;5037222;28;20022;-55
2023/01/16 05:20:26;;;;;;;4.93;2.00;;;;;;;;;;5031677;28;20051;-49
2023/01/16 05:22:52;;;;;;;5.80;2.10;;;;;;;;;;5030771;28;20456;-50
2023/01/16 05:25:17;;;;;;;4.80;2.00;;;;;;;;;;5044093;28;20513;-50
2023/01/16 05:27:42;;;;;;;6.53;2.27;;;;;;;;;;5034558;28;20025;-51
2023/01/16 05:30:07;;;;;;;4.43;1.80;;;;;;;;;;5023181;28;20040;-50
2023/01/16 05:32:33;;;;;;;4.95;1.92;;;;;;;;;;5026492;28;20363;-49
2023/01/16 05:35:01;;;;;;;7.78;2.00;;;;;;;;;;5030731;28;20029;-57
2023/01/16 05:37:27;;;;;;;7.45;1.98;;;;;;;;;;5022944;28;20677;-53
2023/01/16 05:39:52;;;;;;;5.63;2.07;;;;;;;;;;5035373;28;20060;-54
2023/01/16 05:42:24;;;;;;;6.27;1.80;;;;;;;;;;5027570;28;20452;-51
2023/01/16 05:44:50;;;;;;;4.13;1.55;;;;;;;;;;5026303;28;20113;-50
2023/01/16 05:47:16;;;;;;;4.60;1.70;;;;;;;;;;5030295;28;20067;-52
2023/01/16 05:49:41;;;;;;;4.65;1.67;;;;;;;;;;5031143;28;20025;-51
2023/01/16 05:52:06;;;;;;;5.10;1.60;;;;;;;;;;5026633;28;20056;-54
2023/01/16 05:54:31;;;;;;;5.87;1.70;;;;;;;;;;5027718;28;20024;-52
2023/01/16 05:56:56;;;;;;;4.50;1.37;;;;;;;;;;5033377;28;20382;-54
2023/01/16 05:59:22;;;;;;;6.47;1.50;;;;;;;;;;5027813;28;20159;-51
2023/01/16 06:01:47;;;;;;;4.37;1.47;;;;;;;;;;5027082;28;20108;-55
2023/01/16 06:04:12;;;;;;;4.90;2.00;;;;;;;;;;5026684;28;20029;-53
2023/01/16 06:06:37;;;;;;;4.50;1.10;;;;;;;;;;5040157;28;20106;-56
2023/01/16 06:09:02;;;;;;;3.20;1.13;;;;;;;;;;5029695;28;20038;-51
2023/01/16 06:11:27;;;;;;;5.20;1.23;;;;;;;;;;5012431;28;20482;-53
2023/01/16 06:13:52;;;;;;;3.77;1.23;;;;;;;;;;5017615;28;20086;-50
2023/01/16 06:16:18;;;;;;;4.30;1.27;;;;;;;;;;5021781;28;20040;-56
2023/01/16 06:18:43;;;;;;;5.13;1.17;;;;;;;;;;5018831;28;20112;-50
2023/01/16 06:21:08;;;;;;;3.83;1.23;;;;;;;;;;5024965;28;20900;-50
2023/01/16 06:23:33;;;;;;;3.25;0.93;;;;;;;;;;5018570;28;20029;-54
2023/01/16 06:25:59;;;;;;;4.53;1.30;;;;;;;;;;5015469;28;20022;-51
2023/01/16 06:28:24;;;;;;;3.72;0.90;;;;;;;;;;5035454;28;20213;-51
2023/01/16 06:30:52;;;;;;;5.18;1.00;;;;;;;;;;5030941;28;20048;-53
2023/01/16 06:33:17;;;;;;;4.40;1.00;;;;;;;;;;5030688;28;20095;-54
2023/01/16 06:35:43;;;;;;;5.60;1.03;;;;;;;;;;5027613;28;20116;-49
2023/01/16 06:38:08;;;;;;;4.03;0.90;;;;;;;;;;5035537;28;21016;-53
2023/01/16 06:40:33;;;;;;;4.40;1.03;;;;;;;;;;5039071;28;20024;-49
2023/01/16 06:42:58;;;;;;;4.38;0.90;;;;;;;;;;5031430;28;20025;-53
2023/01/16 06:45:24;;;;;;;3.33;0.97;;;;;;;;;;5030430;28;20041;-57
2023/01/16 06:47:53;;;;;;;3.97;1.00;;;;;;;;;;5023489;28;20018;-53
2023/01/16 06:50:18;;;;;;;5.45;1.17;;;;;;;;;;5021482;28;20121;-52
2023/01/16 06:52:43;;;;;;;3.72;1.10;;;;;;;;;;5018269;28;20440;-56
2023/01/16 06:55:08;;;;;;;3.35;0.80;;;;;;;;;;5033725;28;20605;-45
2023/01/16 07:00:41;;;;;;;3.78;1.00;;;;;;;;;;5709673;23;20057;-46
2023/01/16 07:03:06;;;;;;;3.72;0.90;;;;;;;;;;5017113;28;20080;-61
2023/01/16 07:05:31;;;;;;;5.70;1.10;;;;;;;;;;5014568;28;20041;-65
2023/01/16 07:07:57;;;;;;;5.37;1.07;;;;;;;;;;5015520;28;20386;-66
2023/01/16 07:10:22;;;;;;;5.30;1.00;;;;;;;;;;4996909;28;20402;-65
2023/01/16 07:12:49;;;;;;;5.47;1.10;;;;;;;;;;4990988;28;20121;-66
2023/01/16 07:23:33;;;;;;;3.95;0.93;;;;;;;;;;4975923;28;20033;-65
2023/01/16 07:26:00;;;;;;;3.17;1.00;;;;;;;;;;4975218;28;20468;-66
2023/01/16 07:28:25;;;;;;;;;;;;;;;;;;4975457;28;20023;-65
2023/01/16 07:30:50;;;;;;;2.75;0.85;;;;;;;;;;4981215;28;19916;-65
2023/01/16 07:33:15;;;;;;;5.43;1.10;;;;;;;;;;4990034;28;20105;-67
2023/01/16 07:35:41;;;;;;;4.60;1.07;;;;;;;;;;4991944;28;20030;-66
2023/01/16 07:38:06;;;;;;;3.60;1.10;;;;;;;;;;4994982;28;20057;-66
2023/01/16 07:40:31;;;;;;;3.77;1.03;;;;;;;;;;4989497;28;20034;-66
2023/01/16 07:42:56;;;;;;;5.88;1.85;;;;;;;;;;4992818;28;20034;-65
2023/01/16 07:45:21;;;;;;;3.08;1.10;;;;;;;;;;4979495;28;20054;-68
2023/01/16 07:47:47;;;;;;;3.37;1.00;;;;;;;;;;5003127;28;20025;-66
2023/01/16 07:50:12;;;;;;;2.95;1.00;;;;;;;;;;5000762;28;20477;-66
2023/01/16 07:52:37;;;;;;;6.20;1.30;;;;;;;;;;4995418;28;20034;-65
2023/01/16 07:55:03;;;;;;;5.53;1.30;;;;;;;;;;4994786;28;20068;-64
2023/01/16 07:57:28;;;;;;;5.47;1.30;;;;;;;;;;4994793;28;20072;-65
2023/01/16 07:59:53;;;;;;;4.00;1.10;;;;;;;;;;4992377;28;20022;-64
2023/01/16 08:02:19;;;;;;;4.70;1.08;;;;;;;;;;4995690;28;20506;-70
2023/01/16 08:04:44;;;;;;;4.75;1.13;;;;;;;;;;4997820;28;20026;-66
2023/01/16 08:07:09;;;;;;;5.00;1.20;;;;;;;;;;4974725;28;20034;-64
2023/01/16 08:09:34;;;;;;;3.70;1.10;;;;;;;;;;4989845;28;20018;-64
2023/01/16 08:12:00;;;;;;;3.53;0.90;;;;;;;;;;5001536;28;20034;-64
2023/01/16 08:14:25;;;;;;;4.17;1.13;;;;;;;;;;5012910;28;20044;-64
2023/01/16 08:16:50;;;;;;;3.38;1.00;;;;;;;;;;5013272;28;20018;-65
2023/01/16 08:19:15;;;;;;;6.85;1.30;;;;;;;;;;5013000;28;20108;-65
2023/01/16 08:21:40;;;;;;;4.77;1.20;;;;;;;;;;5004046;28;20475;-64
2023/01/16 08:24:06;;;;;;;4.33;1.00;;;;;;;;;;4997582;28;20545;-65
2023/01/16 08:26:31;;;;;;;4.40;1.17;;;;;;;;;;4993676;28;20442;-66
2023/01/16 08:28:57;;;;;;;6.63;1.40;;;;;;;;;;4993445;28;20018;-66
2023/01/16 08:31:22;;;;;;;5.72;1.40;;;;;;;;;;4994655;28;20038;-64
2023/01/16 08:33:48;;;;;;;3.50;1.27;;;;;;;;;;4990212;28;20025;-65
2023/01/16 08:36:15;;;;;;;5.57;1.38;;;;;;;;;;4995221;28;20026;-64
2023/01/16 08:38:40;;;;;;;4.55;1.20;;;;;;;;;;4992519;28;20124;-66
2023/01/16 08:51:21;;;;;;;5.47;1.43;;;;;;;;;;4994830;28;20050;-65
2023/01/16 08:52:02;;;;;;;4.28;1.65;;;;;;;;;;4997850;28;20037;-65
2023/01/16 08:54:27;;;;;;;3.77;1.37;;;;;;;;;;4994862;28;20030;-66
2023/01/16 08:56:53;;;;;;;4.72;1.00;;;;;;;;;;4996142;28;20088;-66
2023/01/16 08:59:18;;;;;;;7.38;1.20;;;;;;;;;;5000743;28;20026;-65
2023/01/16 09:01:43;;;;;;;3.40;0.97;;;;;;;;;;4992441;28;20061;-67
2023/01/16 09:04:08;;;;;;;4.33;1.00;;;;;;;;;;4992618;28;20060;-67
2023/01/16 09:06:35;;;;;;;4.50;1.00;;;;;;;;;;4991402;28;20041;-67
2023/01/16 09:09:01;;;;;;;3.97;0.95;;;;;;;;;;5001217;28;20466;-65
2023/01/16 09:14:10;;;;;;;3.95;0.90;;;;;;;;;;4989444;28;20392;-67
2023/01/16 09:16:35;;;;;;;4.90;1.07;;;;;;;;;;5011675;28;20021;-66
2023/01/16 09:19:00;;;;;;;3.50;0.82;;;;;;;;;;5012103;28;20025;-66
2023/01/16 09:21:26;;;;;;;3.13;0.70;;;;;;;;;;5011097;28;20087;-66
2023/01/16 09:23:51;;;;;;;3.80;0.87;;;;;;;;;;4998220;28;20359;-66
2023/01/16 09:26:16;;;;;;;3.40;0.90;;;;;;;;;;4992343;28;20482;-66
2023/01/16 09:28:42;;;;;;;5.15;0.95;;;;;;;;;;4992369;28;20447;-65
2023/01/16 09:31:07;;;;;;;5.03;1.00;;;;;;;;;;4992798;28;20046;-65
2023/01/16 09:33:32;;;;;;;3.93;0.70;;;;;;;;;;4986250;28;20054;-66
2023/01/16 09:35:57;;;;;;;3.53;0.80;;;;;;;;;;5000030;28;20037;-66
2023/01/16 09:38:22;;;;;;;4.50;0.80;;;;;;;;;;4993170;28;20387;-65
2023/01/16 09:40:51;;;;;;;4.97;0.87;;;;;;;;;;4993402;28;20026;-65
2023/01/16 09:43:40;;;;;;;3.70;0.82;;;;;;;;;;4994066;28;20034;-64
2023/01/16 09:46:08;;;;;;;3.38;0.80;;;;;;;;;;5009151;28;20014;-65
2023/01/16 09:48:36;;;;;;;4.05;0.77;;;;;;;;;;5025050;28;20037;-65
2023/01/16 09:51:11;;;;;;;4.53;1.00;;;;;;;;;;5009520;28;20233;-69
2023/01/16 09:59:18;;;;;;;3.50;0.80;;;;;;;;;;4992017;28;20601;-67
2023/01/16 10:01:45;;;;;;;5.82;0.90;;;;;;;;;;4991217;28;20633;-66
2023/01/16 10:04:19;;;;;;;7.68;1.33;;;;;;;;;;4998370;28;20029;-67
2023/01/16 10:06:47;;;;;;;4.82;0.80;;;;;;;;;;5005194;28;20026;-66
2023/01/16 10:09:16;;;;;;;3.28;0.80;;;;;;;;;;5011232;28;20021;-65
2023/01/16 10:11:58;;;;;;;4.95;0.80;;;;;;;;;;4994040;28;20049;-66
2023/01/16 10:14:31;;;;;;;3.45;0.82;;;;;;;;;;5001979;28;20390;-66
2023/01/16 10:16:56;;;;;;;5.22;0.90;;;;;;;;;;5011693;28;20386;-65
2023/01/16 10:19:40;;;;;;;6.40;0.90;;;;;;;;;;5010619;28;20040;-66
2023/01/16 10:22:21;;;;;;;3.53;0.90;;;;;;;;;;4990284;28;20059;-66
2023/01/16 10:24:52;;;;;;;4.32;0.80;;;;;;;;;;4996378;28;20394;-66
2023/01/16 10:27:21;;;;;;;4.93;0.80;;;;;;;;;;4991760;28;20466;-65
2023/01/16 10:29:49;;;;;;;2.92;0.65;;;;;;;;;;4990748;28;20030;-66
2023/01/16 10:32:19;;;;;;;4.05;0.70;;;;;;;;;;4991352;28;20392;-67
2023/01/16 10:34:47;;;;;;;3.47;0.63;;;;;;;;;;4996738;28;20025;-66
2023/01/16 10:37:12;;;;;;;2.17;0.50;;;;;;;;;;4991340;28;20034;-66
2023/01/16 10:39:38;;;;;;;4.18;0.57;;;;;;;;;;4990868;28;20428;-66
2023/01/16 10:50:29;;;;;;;2.17;0.47;;;;;;;;;;4985682;28;20036;-65
2023/01/16 10:52:54;;;;;;;2.08;0.55;;;;;;;;;;4992500;28;20104;-64
2023/01/16 10:55:19;;;;;;;5.43;0.80;;;;;;;;;;4994910;28;20489;-67
2023/01/16 10:57:46;;;;;;;4.27;1.00;;;;;;;;;;4984350;28;20523;-66
2023/01/16 11:00:19;;;;;;;3.90;1.00;;;;;;;;;;4996133;28;20453;-66
2023/01/16 11:02:47;;;;;;;4.95;0.88;;;;;;;;;;4990789;28;20041;-66
2023/01/16 11:05:32;;;;;;;4.38;0.70;;;;;;;;;;4990530;28;20026;-66
2023/01/16 11:08:07;;;;;;;3.92;0.80;;;;;;;;;;4984450;28;20160;-65
2023/01/16 11:10:32;;;;;;;4.15;0.77;;;;;;;;;;4995043;28;20057;-65
2023/01/16 11:18:42;;;;;;;2.85;0.65;;;;;;;;;;4995271;28;20483;-64
2023/01/16 11:21:15;;;;;;;2.85;0.82;;;;;;;;;;4992550;28;20043;-66
2023/01/16 11:23:40;;;;;;;;;;;;;;;;;;4991393;28;20574;-66
2023/01/16 11:26:07;;;;;;;4.90;0.82;;;;;;;;;;4990437;28;20003;-66
2023/01/16 11:28:33;;;;;;;4.35;1.02;;;;;;;;;;4983141;28;20027;-66
2023/01/16 11:31:05;;;;;;;6.18;1.02;;;;;;;;;;4995297;28;20419;-66
2023/01/16 11:33:39;;;;;;;5.82;1.02;;;;;;;;;;4991195;28;20030;-64
2023/01/16 11:36:05;;;;;;;8.18;1.00;;;;;;;;;;4993174;28;20019;-64
2023/01/16 11:38:33;;;;;;;6.22;0.95;;;;;;;;;;4993159;28;20517;-67
2023/01/16 11:41:00;;;;;;;7.88;0.80;;;;;;;;;;4996775;28;20129;-65
2023/01/16 11:46:30;;;;;;;4.95;1.00;;;;;;;;;;4995115;28;20052;-66
2023/01/16 11:49:03;;;;;;;3.28;0.80;;;;;;;;;;4983566;28;20471;-65
2023/01/16 11:51:30;;;;;;;3.78;1.13;;;;;;;;;;4988932;28;20443;-65
2023/01/16 11:53:56;;;;;;;4.75;1.02;;;;;;;;;;4994552;28;20049;-66
2023/01/16 11:56:26;;;;;;;4.00;0.80;;;;;;;;;;4994474;28;20658;-66
2023/01/16 11:59:18;;;;;;;3.97;1.10;;;;;;;;;;5000998;28;20057;-66
2023/01/16 12:02:18;;;;;;;4.38;0.90;;;;;;;;;;4983998;28;20038;-67
2023/01/16 12:05:53;;;;;;;5.85;1.05;;;;;;;;;;4998202;28;20526;-66
2023/01/16 12:07:40;;;;;;;5.30;0.90;;;;;;;;;;4978705;28;20026;-65
2023/01/16 12:10:19;;;;;;;3.83;0.90;;;;;;;;;;4998857;28;20033;-67
2023/01/16 12:15:50;;;;;;;3.17;0.90;;;;;;;;;;4975304;28;20546;-65
2023/01/16 12:18:37;;;;;;;6.03;0.98;;;;;;;;;;4981403;28;20026;-64
2023/01/16 12:21:05;;;;;;;4.22;0.93;;;;;;;;;;4992092;28;20515;-65
2023/01/16 12:23:49;;;;;;;5.50;1.00;;;;;;;;;;4995616;28;20018;-65
2023/01/16 12:26:17;;;;;;;3.85;0.93;;;;;;;;;;4995300;28;20076;-65
2023/01/16 12:29:01;;;;;;;3.42;0.90;;;;;;;;;;4987523;28;20018;-66
2023/01/16 12:31:34;;;;;;;3.85;0.98;;;;;;;;;;5001206;28;20038;-65
2023/01/16 12:34:18;;;;;;;4.82;0.93;;;;;;;;;;4994776;28;20161;-64
2023/01/16 12:36:56;;;;;;;2.95;0.80;;;;;;;;;;4993611;28;20034;-66
2023/01/16 12:39:30;;;;;;;3.55;0.95;;;;;;;;;;4990825;28;20026;-65
2023/01/16 12:45:07;;;;;;;6.85;1.67;;;;;;;;;;5014737;28;20076;-65
2023/01/16 12:47:32;;;;;;;4.30;1.20;;;;;;;;;;5003865;28;20030;-65
2023/01/16 12:50:03;;;;;;;4.73;1.20;;;;;;;;;;4994914;28;20081;-65
2023/01/16 12:52:34;;;;;;;4.80;1.17;;;;;;;;;;4988920;28;20407;-66
2023/01/16 12:54:59;;;;;;;5.97;1.33;;;;;;;;;;4995585;28;20047;-66
2023/01/16 12:57:39;;;;;;;5.05;1.40;;;;;;;;;;4994576;28;20038;-65
2023/01/16 13:00:14;;;;;;;5.07;1.20;;;;;;;;;;4994190;28;20030;-65
2023/01/16 13:02:43;;;;;;;3.67;1.00;;;;;;;;;;5002907;28;20041;-65
2023/01/16 13:05:19;;;;;;;4.93;1.27;;;;;;;;;;4997084;28;20023;-67
2023/01/16 13:07:48;;;;;;;4.75;1.00;;;;;;;;;;4993427;28;20077;-65
2023/01/16 13:15:46;;;;;;;4.38;1.05;;;;;;;;;;4991551;23;20068;-57
2023/01/16 13:18:17;;;;;;;3.78;0.90;;;;;;;;;;4993231;28;20468;-58
2023/01/16 13:20:44;;;;;;;5.22;0.90;;;;;;;;;;4981058;28;20078;-62
2023/01/16 13:23:16;;;;;;;4.97;1.13;;;;;;;;;;4991934;28;20037;-59
2023/01/16 13:25:46;;;;;;;5.45;1.10;;;;;;;;;;4993050;28;20022;-60
2023/01/16 13:28:18;;;;;;;4.75;0.93;;;;;;;;;;4992451;28;20061;-61
2023/01/16 13:30:43;;;;;;;3.50;0.90;;;;;;;;;;4990588;28;20037;-70
2023/01/16 13:33:15;;;;;;;3.67;0.90;;;;;;;;;;4991280;28;20399;-56
2023/01/16 13:35:46;;;;;;;3.15;0.90;;;;;;;;;;4991642;28;20479;-58
2023/01/16 13:38:25;;;;;;;4.80;1.10;;;;;;;;;;4991932;28;20483;-56
2023/01/16 13:41:06;;;;;;;4.45;1.10;;;;;;;;;;4992345;28;20426;-59
2023/01/16 13:46:19;;;;;;;4.70;1.10;;;;;;;;;;4995450;28;20393;-56
2023/01/16 13:48:49;;;;;;;5.18;1.20;;;;;;;;;;4992000;28;20030;-59
2023/01/16 13:51:16;;;;;;;2.65;0.90;;;;;;;;;;4991729;28;20479;-61
2023/01/16 13:53:44;;;;;;;4.65;1.40;;;;;;;;;;4992873;28;20446;-58
2023/01/16 13:56:14;;;;;;;4.13;0.80;;;;;;;;;;4991322;28;20019;-62
2023/01/16 13:58:40;;;;;;;7.20;1.02;;;;;;;;;;4992309;28;20065;-60
2023/01/16 14:01:06;;;;;;;3.88;0.90;;;;;;;;;;4991233;28;20030;-56
2023/01/16 14:03:33;;;;;;;4.40;0.90;;;;;;;;;;4991864;28;20510;-61
2023/01/16 14:06:10;;;;;;;3.67;0.88;;;;;;;;;;4988872;28;20026;-59
2023/01/16 14:09:06;;;;;;;4.55;1.13;;;;;;;;;;4989417;28;20101;-56
2023/01/16 14:11:56;;;;;;;5.45;1.15;;;;;;;;;;4951876;28;20039;-56
2023/01/16 14:17:30;;;;;;;4.43;1.00;;;;;;;;;;4991156;28;20037;-57
2023/01/16 14:19:59;;;;;;;5.20;1.40;;;;;;;;;;4991310;28;20018;-57
2023/01/16 14:24:56;;;;;;;5.70;1.33;;;;;;;;;;4984556;28;20018;-56
2023/01/16 14:27:23;;;;;;;5.00;1.15;;;;;;;;;;4991837;28;20023;-55
2023/01/16 14:29:55;;;;;;;4.55;1.35;;;;;;;;;;4991634;28;20019;-55
2023/01/16 14:32:23;;;;;;;5.65;1.10;;;;;;;;;;4990758;28;20034;-56
2023/01/16 14:34:50;;;;;;;5.50;1.30;;;;;;;;;;4991564;28;20097;-55
2023/01/16 14:37:25;;;;;;;6.05;1.10;;;;;;;;;;4990538;28;20045;-56
2023/01/16 14:39:57;;;;;;;5.03;1.10;;;;;;;;;;4990495;28;20479;-55
2023/01/16 14:56:29;;;;;;;5.88;1.10;;;;;;;;;;4986796;28;20501;-57
2023/01/16 14:58:58;;;;;;;4.38;0.93;;;;;;;;;;4990891;28;20105;-60
2023/01/16 15:04:13;;;;;;;4.28;1.00;;;;;;;;;;4991220;28;20498;-56
2023/01/16 15:06:40;;;;;;;4.28;1.00;;;;;;;;;;4989581;28;20030;-57
2023/01/16 15:09:11;;;;;;;6.75;1.20;;;;;;;;;;4986751;28;20029;-57
2023/01/16 15:11:44;;;;;;;5.82;1.10;;;;;;;;;;4985856;28;20126;-56
2023/01/16 15:14:26;;;;;;;7.90;1.17;;;;;;;;;;4989045;28;20541;-57
2023/01/16 15:22:43;;;;;;;4.22;0.90;;;;;;;;;;5011131;28;20029;-60
2023/01/16 15:25:31;;;;;;;6.05;1.50;;;;;;;;;;5013152;28;20049;-60
2023/01/16 15:28:03;;;;;;;4.70;1.10;;;;;;;;;;4966517;28;20030;-61
2023/01/16 15:30:29;;;;;;;4.43;1.10;;;;;;;;;;5009830;28;20079;-55
2023/01/16 15:35:42;;;;;;;4.47;1.10;;;;;;;;;;5010018;28;20068;-58
2023/01/16 15:38:08;;;;;;;4.40;1.10;;;;;;;;;;5008614;28;20022;-59
2023/01/16 15:40:34;;;;;;;4.53;1.10;;;;;;;;;;5013277;28;20018;-60
2023/01/16 15:48:51;;;;;;;4.95;1.30;;;;;;;;;;5007190;28;20088;-55
2023/01/16 15:51:18;;;;;;;4.95;1.40;;;;;;;;;;5013255;28;20045;-60
2023/01/16 15:53:46;;;;;;;5.28;1.20;;;;;;;;;;5010729;28;20096;-58
2023/01/16 15:56:24;;;;;;;5.32;1.25;;;;;;;;;;5009666;28;20018;-60
2023/01/16 15:58:51;;;;;;;;;;;;;;;;;;5007221;28;20112;-57
2023/01/16 16:01:24;;;;;;;5.40;1.10;;;;;;;;;;5007407;28;19967;-57
2023/01/16 16:03:49;;;;;;;5.53;1.27;;;;;;;;;;5010551;28;20120;-57
2023/01/16 16:06:16;;;;;;;5.30;1.50;;;;;;;;;;5009897;28;20121;-58
2023/01/16 16:08:44;;;;;;;6.35;1.60;;;;;;;;;;5009442;28;20766;-56
2023/01/16 16:19:42;;;;;;;4.85;1.38;;;;;;;;;;5007612;28;20670;-59
2023/01/16 16:24:52;;;;;;;4.97;1.38;;;;;;;;;;5008600;28;20069;-56
2023/01/16 16:27:18;;;;;;;5.40;1.50;;;;;;;;;;5007551;28;20025;-60
2023/01/16 16:29:52;;;;;;;6.65;1.73;;;;;;;;;;5007635;28;20022;-54
2023/01/16 16:32:18;;;;;;;5.85;1.55;;;;;;;;;;5009718;28;20116;-55
2023/01/16 16:34:54;;;;;;;6.95;1.58;;;;;;;;;;5012805;28;20056;-54
2023/01/16 16:37:19;;;;;;;6.85;1.70;;;;;;;;;;5010967;28;20075;-56
2023/01/16 16:40:03;;;;;;;7.13;1.52;;;;;;;;;;5009579;28;20104;-56
2023/01/16 16:42:46;;;;;;;6.97;1.58;;;;;;;;;;5011031;28;20466;-55
2023/01/16 16:45:19;;;;;;;6.35;1.65;;;;;;;;;;5010064;28;20029;-56
2023/01/16 16:47:49;;;;;;;6.28;1.80;;;;;;;;;;5012369;28;20026;-55